mouseover weather


#1

I just noticed that my mouseover weather is incorrect for KGSO. Seems I saw that mentioned somewhere else… but a search on mouseover did not bring up any relevant msgs.

What’s the status of the mouseover weather bug?

mouseover weather: LIFR - 030454Z 32004kt 1 1/2SM -RA BR bkn002 bkn006 etc.

KGSO wx: KGSO 040354Z 00000KT 10SM BKN039 09/07 A2978 RMK AO2 SLP084 T00890067

The time and date are wrong on the mouseover wx. The mouseover weather is about 24 hours old.

Edit: something changed after I closed out FA and restarted it. Now it appears the wx is correct.

Has this been a problem for anyone else?